Overview Statistics Trail Chart Weather Telemetry Raw packets
 

This is the latest recevied weather packets stored in our database for station/object DO3MLA-13. If no packets are shown the sender has not sent any weather packets the latest 10 day(s).

<< 51 52 53 54 55 56 57 >>
Time Temp. Humidity Pressure Rain* Wind** Luminosity Snow
1787862304 27.22° C 100% 993 hPa 0 mm - 0 W/m² -
1787861699 27.22° C 100% 994 hPa 0 mm - 0 W/m² -
1787861094 27.22° C 100% 993 hPa 0 mm - 0 W/m² -
1787860490 27.22° C 100% 993 hPa 0 mm - 0 W/m² -
1787859885 27.78° C 100% 993 hPa 0 mm - 0 W/m² -
1787859281 27.78° C 100% 994 hPa 0 mm - 0 W/m² -
1787858676 27.78° C 100% 994 hPa 0 mm - 0 W/m² -
1787857466 27.22° C 100% 994 hPa 0 mm - 0 W/m² -
1787856862 27.78° C 100% 994 hPa 0 mm - 0 W/m² -
1787856257 28.33° C 100% 994 hPa 0 mm - 0 W/m² -
1787855652 28.33° C 100% 993 hPa 0 mm - 0 W/m² -
1787855048 28.33° C 100% 993 hPa 0 mm - 0 W/m² -
1787854443 28.89° C 100% 993 hPa 0 mm - 1 W/m² -
1787853838 29.44° C 100% 993 hPa 0 mm - 4 W/m² -
1787853234 30° C 100% 993 hPa 0 mm - 6 W/m² -
1787852024 31.11° C 88% 994 hPa 0 mm - 13 W/m² -
1787850816 32.22° C 69% 994 hPa 0 mm - 28 W/m² -
1787850211 32.22° C 66% 994 hPa 0 mm - 34 W/m² -
1787849606 32.78° C 64% 994 hPa 0 mm - 42 W/m² -
1787849001 32.78° C 62% 994 hPa 0 mm - 57 W/m² -
1787848397 32.78° C 61% 994 hPa 0 mm - 63 W/m² -
1787847792 33.33° C 58% 994 hPa 0 mm - 70 W/m² -
1787847187 33.89° C 58% 994 hPa 0 mm - 96 W/m² -
1787846583 33.89° C 55% 995 hPa 0 mm - 100 W/m² -
1787845980 33.89° C 54% 995 hPa 0 mm - 176 W/m² -

* Rain latest hour (hover to see other rain measurements)
** Current wind speed in m/s (hover to see current wind gust speed)